sensor_id;sensor_type;location;lat;lon;timestamp;temperature;humidity
35395;DHT22;21500;45.308;9.488;2023-03-11T09:12:32;16.60;97.00
35395;DHT22;21500;45.308;9.488;2023-03-11T11:21:49;21.30;93.10
35395;DHT22;21500;45.308;9.488;2023-03-11T11:24:29;21.10;92.20
35395;DHT22;21500;45.308;9.488;2023-03-11T11:27:23;20.80;92.50
35395;DHT22;21500;45.308;9.488;2023-03-11T11:32:29;20.20;92.90
35395;DHT22;21500;45.308;9.488;2023-03-11T11:52:13;21.20;91.70
35395;DHT22;21500;45.308;9.488;2023-03-11T12:51:40;23.00;83.00
35395;DHT22;21500;45.308;9.488;2023-03-11T13:41:42;22.80;82.50
35395;DHT22;21500;45.308;9.488;2023-03-11T13:52:52;23.00;82.90
35395;DHT22;21500;45.308;9.488;2023-03-11T13:55:36;23.20;83.00
35395;DHT22;21500;45.308;9.488;2023-03-11T13:58:18;23.30;83.00
35395;DHT22;21500;45.308;9.488;2023-03-11T14:00:55;23.10;83.00
35395;DHT22;21500;45.308;9.488;2023-03-11T14:03:25;22.90;82.60
35395;DHT22;21500;45.308;9.488;2023-03-11T14:06:21;23.20;82.90
35395;DHT22;21500;45.308;9.488;2023-03-11T14:08:56;22.90;83.30
35395;DHT22;21500;45.308;9.488;2023-03-11T14:15:13;22.90;83.60
35395;DHT22;21500;45.308;9.488;2023-03-11T14:17:43;22.80;84.00
35395;DHT22;21500;45.308;9.488;2023-03-11T14:20:15;22.70;83.90
35395;DHT22;21500;45.308;9.488;2023-03-11T14:22:50;22.70;84.30
35395;DHT22;21500;45.308;9.488;2023-03-11T14:25:45;22.20;84.40
35395;DHT22;21500;45.308;9.488;2023-03-11T14:34:19;22.90;85.00
35395;DHT22;21500;45.308;9.488;2023-03-11T14:36:58;22.80;85.80
35395;DHT22;21500;45.308;9.488;2023-03-11T14:39:38;22.90;84.70
35395;DHT22;21500;45.308;9.488;2023-03-11T14:45:28;22.50;84.60
35395;DHT22;21500;45.308;9.488;2023-03-11T14:50:38;22.60;85.60
35395;DHT22;21500;45.308;9.488;2023-03-11T14:56:11;22.40;86.00
35395;DHT22;21500;45.308;9.488;2023-03-11T15:01:41;22.40;85.30
35395;DHT22;21500;45.308;9.488;2023-03-11T15:04:25;22.50;85.70
35395;DHT22;21500;45.308;9.488;2023-03-11T15:07:00;22.20;85.90
35395;DHT22;21500;45.308;9.488;2023-03-11T15:09:33;22.20;86.30
35395;DHT22;21500;45.308;9.488;2023-03-11T15:12:40;22.30;87.20
35395;DHT22;21500;45.308;9.488;2023-03-11T15:15:30;22.70;86.20
35395;DHT22;21500;45.308;9.488;2023-03-11T15:18:01;22.60;86.10
35395;DHT22;21500;45.308;9.488;2023-03-11T15:20:39;22.60;85.60
35395;DHT22;21500;45.308;9.488;2023-03-11T15:23:25;22.70;85.60
35395;DHT22;21500;45.308;9.488;2023-03-11T15:26:03;22.80;85.80
35395;DHT22;21500;45.308;9.488;2023-03-11T15:28:35;23.00;85.50
35395;DHT22;21500;45.308;9.488;2023-03-11T15:31:16;22.90;85.30
35395;DHT22;21500;45.308;9.488;2023-03-11T15:33:51;22.80;85.20
35395;DHT22;21500;45.308;9.488;2023-03-11T15:39:17;22.80;85.60
35395;DHT22;21500;45.308;9.488;2023-03-11T15:45:19;22.80;85.70
35395;DHT22;21500;45.308;9.488;2023-03-11T15:48:43;22.70;85.50
35395;DHT22;21500;45.308;9.488;2023-03-11T15:55:19;22.60;86.70
35395;DHT22;21500;45.308;9.488;2023-03-11T15:57:50;22.70;86.00
35395;DHT22;21500;45.308;9.488;2023-03-11T16:00:25;22.70;86.00
35395;DHT22;21500;45.308;9.488;2023-03-11T16:02:56;22.70;86.20
35395;DHT22;21500;45.308;9.488;2023-03-11T16:05:24;22.90;86.20
35395;DHT22;21500;45.308;9.488;2023-03-11T16:07:50;24.40;84.60
35395;DHT22;21500;45.308;9.488;2023-03-11T16:10:18;26.00;82.50
35395;DHT22;21500;45.308;9.488;2023-03-11T16:12:45;28.10;81.20
35395;DHT22;21500;45.308;9.488;2023-03-11T16:15:32;27.80;80.00
35395;DHT22;21500;45.308;9.488;2023-03-11T16:18:00;27.60;79.20
35395;DHT22;21500;45.308;9.488;2023-03-11T16:20:29;27.90;78.70
35395;DHT22;21500;45.308;9.488;2023-03-11T16:22:57;28.80;78.00
35395;DHT22;21500;45.308;9.488;2023-03-11T16:25:32;29.50;77.20
35395;DHT22;21500;45.308;9.488;2023-03-11T16:27:59;28.10;76.40
35395;DHT22;21500;45.308;9.488;2023-03-11T16:30:27;29.70;75.40
35395;DHT22;21500;45.308;9.488;2023-03-11T16:32:53;27.90;76.30
35395;DHT22;21500;45.308;9.488;2023-03-11T16:35:19;27.80;76.80
35395;DHT22;21500;45.308;9.488;2023-03-11T16:37:45;27.20;77.60
35395;DHT22;21500;45.308;9.488;2023-03-11T16:40:20;26.30;78.30
35395;DHT22;21500;45.308;9.488;2023-03-11T16:42:46;25.20;80.00
35395;DHT22;21500;45.308;9.488;2023-03-11T16:45:14;25.30;80.70
35395;DHT22;21500;45.308;9.488;2023-03-11T16:47:40;25.40;81.00
35395;DHT22;21500;45.308;9.488;2023-03-11T16:50:06;25.10;81.50
35395;DHT22;21500;45.308;9.488;2023-03-11T16:52:32;25.20;81.80
35395;DHT22;21500;45.308;9.488;2023-03-11T16:55:09;24.30;82.80
35395;DHT22;21500;45.308;9.488;2023-03-11T16:57:35;24.20;82.80
35395;DHT22;21500;45.308;9.488;2023-03-11T17:00:04;23.90;83.70
35395;DHT22;21500;45.308;9.488;2023-03-11T17:02:32;23.00;85.30
35395;DHT22;21500;45.308;9.488;2023-03-11T17:10:36;21.50;90.00
35395;DHT22;21500;45.308;9.488;2023-03-11T17:13:06;20.80;91.40
35395;DHT22;21500;45.308;9.488;2023-03-11T17:15:33;20.50;92.00
35395;DHT22;21500;45.308;9.488;2023-03-11T17:18:05;20.10;92.50
35395;DHT22;21500;45.308;9.488;2023-03-11T17:20:32;19.90;92.90
35395;DHT22;21500;45.308;9.488;2023-03-11T17:23:02;19.80;93.30
35395;DHT22;21500;45.308;9.488;2023-03-11T17:25:33;19.60;93.80
35395;DHT22;21500;45.308;9.488;2023-03-11T17:28:33;19.40;94.20
35395;DHT22;21500;45.308;9.488;2023-03-11T17:31:19;19.20;94.50
35395;DHT22;21500;45.308;9.488;2023-03-11T17:34:33;19.00;94.80
35395;DHT22;21500;45.308;9.488;2023-03-11T17:36:59;18.90;94.90
35395;DHT22;21500;45.308;9.488;2023-03-11T17:39:24;18.80;95.20
35395;DHT22;21500;45.308;9.488;2023-03-11T17:41:53;18.70;95.30
35395;DHT22;21500;45.308;9.488;2023-03-11T17:44:28;18.60;95.50
35395;DHT22;21500;45.308;9.488;2023-03-11T17:47:02;18.70;95.40
35395;DHT22;21500;45.308;9.488;2023-03-11T17:58:45;18.50;95.60
35395;DHT22;21500;45.308;9.488;2023-03-11T18:01:21;18.40;95.80
35395;DHT22;21500;45.308;9.488;2023-03-11T18:03:50;18.30;95.80
35395;DHT22;21500;45.308;9.488;2023-03-11T18:07:39;18.20;96.00
35395;DHT22;21500;45.308;9.488;2023-03-11T18:10:25;18.20;96.20
35395;DHT22;21500;45.308;9.488;2023-03-11T18:13:14;18.10;96.30
35395;DHT22;21500;45.308;9.488;2023-03-11T18:15:41;18.10;96.30
35395;DHT22;21500;45.308;9.488;2023-03-11T18:18:15;18.10;96.30
35395;DHT22;21500;45.308;9.488;2023-03-11T18:20:47;18.00;96.40
35395;DHT22;21500;45.308;9.488;2023-03-11T18:23:14;18.00;96.30
35395;DHT22;21500;45.308;9.488;2023-03-11T18:25:53;18.00;96.30
35395;DHT22;21500;45.308;9.488;2023-03-11T18:28:19;18.00;96.50
35395;DHT22;21500;45.308;9.488;2023-03-11T18:30:47;17.90;96.50
35395;DHT22;21500;45.308;9.488;2023-03-11T18:34:17;18.00;96.40
35395;DHT22;21500;45.308;9.488;2023-03-11T18:36:43;18.00;96.40
35395;DHT22;21500;45.308;9.488;2023-03-11T18:39:15;18.00;96.30
35395;DHT22;21500;45.308;9.488;2023-03-11T18:41:42;18.00;96.30
35395;DHT22;21500;45.308;9.488;2023-03-11T18:44:09;17.90;96.40
35395;DHT22;21500;45.308;9.488;2023-03-11T18:46:36;17.80;96.50
35395;DHT22;21500;45.308;9.488;2023-03-11T18:49:03;17.80;96.60
35395;DHT22;21500;45.308;9.488;2023-03-11T18:51:30;17.80;96.70
35395;DHT22;21500;45.308;9.488;2023-03-11T18:53:57;17.70;96.80
35395;DHT22;21500;45.308;9.488;2023-03-11T18:56:23;17.60;96.90
35395;DHT22;21500;45.308;9.488;2023-03-11T18:59:11;17.50;97.00
35395;DHT22;21500;45.308;9.488;2023-03-11T19:01:41;17.50;97.20
35395;DHT22;21500;45.308;9.488;2023-03-11T19:04:09;17.40;97.30
35395;DHT22;21500;45.308;9.488;2023-03-11T19:06:36;17.30;97.50
35395;DHT22;21500;45.308;9.488;2023-03-11T19:09:02;17.30;97.70
35395;DHT22;21500;45.308;9.488;2023-03-11T19:11:30;17.20;97.80
35395;DHT22;21500;45.308;9.488;2023-03-11T19:13:56;17.10;97.90
35395;DHT22;21500;45.308;9.488;2023-03-11T19:16:24;17.10;97.90
35395;DHT22;21500;45.308;9.488;2023-03-11T19:18:50;17.10;98.00
35395;DHT22;21500;45.308;9.488;2023-03-11T19:21:48;17.00;98.20
35395;DHT22;21500;45.308;9.488;2023-03-11T19:24:14;17.00;98.40
35395;DHT22;21500;45.308;9.488;2023-03-11T20:01:46;16.60;98.50
35395;DHT22;21500;45.308;9.488;2023-03-11T20:04:53;16.40;99.10
